sensor_id;sensor_type;location;lat;lon;timestamp;temperature;humidity
5461;DHT22;2753;49.196;8.286;2022-07-18T00:00:24;22.40;51.70
5461;DHT22;2753;49.196;8.286;2022-07-18T00:02:49;22.30;52.20
5461;DHT22;2753;49.196;8.286;2022-07-18T00:05:15;22.20;52.00
5461;DHT22;2753;49.196;8.286;2022-07-18T00:07:41;22.10;53.00
5461;DHT22;2753;49.196;8.286;2022-07-18T00:10:07;22.10;52.30
5461;DHT22;2753;49.196;8.286;2022-07-18T00:12:33;22.10;52.00
5461;DHT22;2753;49.196;8.286;2022-07-18T00:14:58;22.00;52.10
5461;DHT22;2753;49.196;8.286;2022-07-18T00:17:24;22.00;52.00
5461;DHT22;2753;49.196;8.286;2022-07-18T00:19:50;22.00;51.30
5461;DHT22;2753;49.196;8.286;2022-07-18T00:22:16;21.90;50.90
5461;DHT22;2753;49.196;8.286;2022-07-18T00:24:42;21.90;51.60
5461;DHT22;2753;49.196;8.286;2022-07-18T00:27:07;21.70;51.60
5461;DHT22;2753;49.196;8.286;2022-07-18T00:29:33;21.80;51.90
5461;DHT22;2753;49.196;8.286;2022-07-18T00:32:07;21.70;51.50
5461;DHT22;2753;49.196;8.286;2022-07-18T00:34:34;21.70;51.70
5461;DHT22;2753;49.196;8.286;2022-07-18T00:37:00;21.60;51.40
5461;DHT22;2753;49.196;8.286;2022-07-18T00:39:26;21.60;51.40
5461;DHT22;2753;49.196;8.286;2022-07-18T00:41:52;21.70;51.50
5461;DHT22;2753;49.196;8.286;2022-07-18T00:44:19;21.60;51.50
5461;DHT22;2753;49.196;8.286;2022-07-18T00:46:46;21.60;51.40
5461;DHT22;2753;49.196;8.286;2022-07-18T00:49:11;21.60;51.40
5461;DHT22;2753;49.196;8.286;2022-07-18T00:51:37;21.60;51.00
5461;DHT22;2753;49.196;8.286;2022-07-18T00:54:04;21.50;51.10
5461;DHT22;2753;49.196;8.286;2022-07-18T00:56:30;21.40;51.40
5461;DHT22;2753;49.196;8.286;2022-07-18T00:58:56;21.40;51.40
5461;DHT22;2753;49.196;8.286;2022-07-18T01:01:22;21.30;50.90
5461;DHT22;2753;49.196;8.286;2022-07-18T01:04:06;21.30;51.00
5461;DHT22;2753;49.196;8.286;2022-07-18T01:06:32;21.40;51.30
5461;DHT22;2753;49.196;8.286;2022-07-18T01:08:58;21.40;51.30
5461;DHT22;2753;49.196;8.286;2022-07-18T01:11:24;21.30;51.80
5461;DHT22;2753;49.196;8.286;2022-07-18T01:13:50;21.30;51.80
5461;DHT22;2753;49.196;8.286;2022-07-18T01:16:17;21.40;51.80
5461;DHT22;2753;49.196;8.286;2022-07-18T01:18:48;21.40;51.90
5461;DHT22;2753;49.196;8.286;2022-07-18T01:21:15;21.40;51.80
5461;DHT22;2753;49.196;8.286;2022-07-18T01:23:41;21.40;51.90
5461;DHT22;2753;49.196;8.286;2022-07-18T01:26:07;21.40;51.70
5461;DHT22;2753;49.196;8.286;2022-07-18T01:28:32;21.30;51.90
5461;DHT22;2753;49.196;8.286;2022-07-18T01:30:58;21.20;52.20
5461;DHT22;2753;49.196;8.286;2022-07-18T01:33:24;21.00;52.80
5461;DHT22;2753;49.196;8.286;2022-07-18T01:35:50;20.90;53.00
5461;DHT22;2753;49.196;8.286;2022-07-18T01:38:16;20.90;53.60
5461;DHT22;2753;49.196;8.286;2022-07-18T01:40:43;20.90;54.00
5461;DHT22;2753;49.196;8.286;2022-07-18T01:43:09;20.70;54.20
5461;DHT22;2753;49.196;8.286;2022-07-18T01:45:35;20.70;54.20
5461;DHT22;2753;49.196;8.286;2022-07-18T01:48:01;20.80;54.60
5461;DHT22;2753;49.196;8.286;2022-07-18T01:50:26;20.70;54.40
5461;DHT22;2753;49.196;8.286;2022-07-18T01:52:53;20.60;54.50
5461;DHT22;2753;49.196;8.286;2022-07-18T01:55:18;20.60;55.30
5461;DHT22;2753;49.196;8.286;2022-07-18T01:57:44;20.50;54.50
5461;DHT22;2753;49.196;8.286;2022-07-18T02:00:11;20.50;54.80
5461;DHT22;2753;49.196;8.286;2022-07-18T02:02:37;20.40;54.60
5461;DHT22;2753;49.196;8.286;2022-07-18T02:05:05;20.40;54.70
5461;DHT22;2753;49.196;8.286;2022-07-18T02:07:33;20.40;54.60
5461;DHT22;2753;49.196;8.286;2022-07-18T02:10:00;20.20;54.70
5461;DHT22;2753;49.196;8.286;2022-07-18T02:12:27;20.00;55.00
5461;DHT22;2753;49.196;8.286;2022-07-18T02:14:53;19.90;55.10
5461;DHT22;2753;49.196;8.286;2022-07-18T02:17:19;19.80;54.60
5461;DHT22;2753;49.196;8.286;2022-07-18T02:19:45;19.90;55.00
5461;DHT22;2753;49.196;8.286;2022-07-18T02:22:11;19.90;54.50
5461;DHT22;2753;49.196;8.286;2022-07-18T02:24:37;19.90;54.50
5461;DHT22;2753;49.196;8.286;2022-07-18T02:27:03;19.90;54.90
5461;DHT22;2753;49.196;8.286;2022-07-18T02:29:29;19.80;54.90
5461;DHT22;2753;49.196;8.286;2022-07-18T02:31:55;19.80;55.30
5461;DHT22;2753;49.196;8.286;2022-07-18T02:34:21;19.90;54.90
5461;DHT22;2753;49.196;8.286;2022-07-18T02:36:46;20.00;54.80
5461;DHT22;2753;49.196;8.286;2022-07-18T02:39:13;20.00;54.80
5461;DHT22;2753;49.196;8.286;2022-07-18T02:41:39;20.10;54.80
5461;DHT22;2753;49.196;8.286;2022-07-18T02:44:05;20.10;54.30
5461;DHT22;2753;49.196;8.286;2022-07-18T02:46:30;20.10;54.30
5461;DHT22;2753;49.196;8.286;2022-07-18T02:48:56;20.00;54.80
5461;DHT22;2753;49.196;8.286;2022-07-18T02:51:22;19.90;54.80
5461;DHT22;2753;49.196;8.286;2022-07-18T02:53:47;19.80;55.10
5461;DHT22;2753;49.196;8.286;2022-07-18T02:56:13;19.80;55.40
5461;DHT22;2753;49.196;8.286;2022-07-18T02:58:39;19.70;55.70
5461;DHT22;2753;49.196;8.286;2022-07-18T03:01:04;19.60;56.10
5461;DHT22;2753;49.196;8.286;2022-07-18T03:03:30;19.60;56.30
5461;DHT22;2753;49.196;8.286;2022-07-18T03:05:56;19.60;56.50
5461;DHT22;2753;49.196;8.286;2022-07-18T03:08:21;19.50;56.40
5461;DHT22;2753;49.196;8.286;2022-07-18T03:10:47;19.60;55.90
5461;DHT22;2753;49.196;8.286;2022-07-18T03:13:13;19.60;55.80
5461;DHT22;2753;49.196;8.286;2022-07-18T03:15:39;19.60;55.60
5461;DHT22;2753;49.196;8.286;2022-07-18T03:18:05;19.60;55.40
5461;DHT22;2753;49.196;8.286;2022-07-18T03:20:31;19.60;55.20
5461;DHT22;2753;49.196;8.286;2022-07-18T03:22:57;19.60;55.40
5461;DHT22;2753;49.196;8.286;2022-07-18T03:25:23;19.60;55.70
5461;DHT22;2753;49.196;8.286;2022-07-18T03:27:49;19.50;56.20
5461;DHT22;2753;49.196;8.286;2022-07-18T03:30:15;19.50;56.20
5461;DHT22;2753;49.196;8.286;2022-07-18T03:32:40;19.40;56.30
5461;DHT22;2753;49.196;8.286;2022-07-18T03:35:07;19.40;56.50
5461;DHT22;2753;49.196;8.286;2022-07-18T03:37:32;19.40;56.10
5461;DHT22;2753;49.196;8.286;2022-07-18T03:39:58;19.40;56.10
5461;DHT22;2753;49.196;8.286;2022-07-18T03:42:24;19.40;56.50
5461;DHT22;2753;49.196;8.286;2022-07-18T03:44:50;19.30;57.30
5461;DHT22;2753;49.196;8.286;2022-07-18T03:47:15;19.10;57.50
5461;DHT22;2753;49.196;8.286;2022-07-18T03:49:41;19.10;57.30
5461;DHT22;2753;49.196;8.286;2022-07-18T03:52:07;19.10;57.40
5461;DHT22;2753;49.196;8.286;2022-07-18T03:54:32;19.00;57.90
5461;DHT22;2753;49.196;8.286;2022-07-18T03:56:58;19.10;57.80
5461;DHT22;2753;49.196;8.286;2022-07-18T03:59:24;19.10;57.30
5461;DHT22;2753;49.196;8.286;2022-07-18T04:01:59;19.20;57.50
5461;DHT22;2753;49.196;8.286;2022-07-18T04:04:28;19.10;57.80
5461;DHT22;2753;49.196;8.286;2022-07-18T04:07:01;19.00;57.50
5461;DHT22;2753;49.196;8.286;2022-07-18T04:09:29;19.10;57.50
5461;DHT22;2753;49.196;8.286;2022-07-18T04:12:04;19.10;57.50
5461;DHT22;2753;49.196;8.286;2022-07-18T04:14:32;19.10;57.00
5461;DHT22;2753;49.196;8.286;2022-07-18T04:16:58;19.20;56.90
5461;DHT22;2753;49.196;8.286;2022-07-18T04:19:24;19.20;57.00
5461;DHT22;2753;49.196;8.286;2022-07-18T04:21:53;19.10;57.30
5461;DHT22;2753;49.196;8.286;2022-07-18T04:24:20;19.10;57.30
5461;DHT22;2753;49.196;8.286;2022-07-18T04:26:51;19.10;57.70
5461;DHT22;2753;49.196;8.286;2022-07-18T04:29:17;19.10;57.20
5461;DHT22;2753;49.196;8.286;2022-07-18T04:31:43;19.10;57.90
5461;DHT22;2753;49.196;8.286;2022-07-18T04:34:09;19.10;57.60
5461;DHT22;2753;49.196;8.286;2022-07-18T04:36:35;19.10;58.50
5461;DHT22;2753;49.196;8.286;2022-07-18T04:39:01;19.10;57.90
5461;DHT22;2753;49.196;8.286;2022-07-18T04:41:27;19.10;57.90
5461;DHT22;2753;49.196;8.286;2022-07-18T04:43:52;19.10;57.70
5461;DHT22;2753;49.196;8.286;2022-07-18T04:46:18;19.10;57.60
5461;DHT22;2753;49.196;8.286;2022-07-18T04:48:44;19.10;58.10
5461;DHT22;2753;49.196;8.286;2022-07-18T04:51:09;19.10;58.00
5461;DHT22;2753;49.196;8.286;2022-07-18T04:53:35;19.20;57.80
5461;DHT22;2753;49.196;8.286;2022-07-18T04:56:00;19.20;57.50
5461;DHT22;2753;49.196;8.286;2022-07-18T04:58:26;19.20;57.60
5461;DHT22;2753;49.196;8.286;2022-07-18T05:00:52;19.20;57.90
5461;DHT22;2753;49.196;8.286;2022-07-18T05:03:18;19.20;57.80
5461;DHT22;2753;49.196;8.286;2022-07-18T05:05:44;19.20;58.50
5461;DHT22;2753;49.196;8.286;2022-07-18T05:08:09;19.30;58.40
5461;DHT22;2753;49.196;8.286;2022-07-18T05:10:37;19.30;58.40
5461;DHT22;2753;49.196;8.286;2022-07-18T05:13:03;19.30;58.10
5461;DHT22;2753;49.196;8.286;2022-07-18T05:15:29;19.40;57.90
5461;DHT22;2753;49.196;8.286;2022-07-18T05:17:55;19.40;58.00
5461;DHT22;2753;49.196;8.286;2022-07-18T05:20:22;19.50;58.30
5461;DHT22;2753;49.196;8.286;2022-07-18T05:22:48;19.50;57.70
5461;DHT22;2753;49.196;8.286;2022-07-18T05:25:14;19.60;58.20
5461;DHT22;2753;49.196;8.286;2022-07-18T05:27:40;19.50;58.40
5461;DHT22;2753;49.196;8.286;2022-07-18T05:30:08;19.50;58.10
5461;DHT22;2753;49.196;8.286;2022-07-18T05:32:35;19.60;57.80
5461;DHT22;2753;49.196;8.286;2022-07-18T05:35:01;19.70;58.20
5461;DHT22;2753;49.196;8.286;2022-07-18T05:37:26;19.80;58.20
5461;DHT22;2753;49.196;8.286;2022-07-18T05:39:52;19.80;57.50
5461;DHT22;2753;49.196;8.286;2022-07-18T05:42:18;19.80;58.70
5461;DHT22;2753;49.196;8.286;2022-07-18T05:44:44;19.80;57.80
5461;DHT22;2753;49.196;8.286;2022-07-18T05:47:10;19.90;58.00
5461;DHT22;2753;49.196;8.286;2022-07-18T05:49:36;19.90;58.20
5461;DHT22;2753;49.196;8.286;2022-07-18T05:52:01;19.90;58.10
5461;DHT22;2753;49.196;8.286;2022-07-18T05:54:27;19.90;57.90
5461;DHT22;2753;49.196;8.286;2022-07-18T05:56:53;20.00;58.00
5461;DHT22;2753;49.196;8.286;2022-07-18T05:59:19;20.10;57.80
5461;DHT22;2753;49.196;8.286;2022-07-18T06:01:46;20.10;57.80
5461;DHT22;2753;49.196;8.286;2022-07-18T06:04:11;20.10;57.70
5461;DHT22;2753;49.196;8.286;2022-07-18T06:06:37;20.20;57.50
5461;DHT22;2753;49.196;8.286;2022-07-18T06:09:04;20.20;58.00
5461;DHT22;2753;49.196;8.286;2022-07-18T06:11:30;20.20;57.10
5461;DHT22;2753;49.196;8.286;2022-07-18T06:13:56;20.30;57.20
5461;DHT22;2753;49.196;8.286;2022-07-18T06:16:22;20.30;57.40
5461;DHT22;2753;49.196;8.286;2022-07-18T06:18:48;20.30;56.90
5461;DHT22;2753;49.196;8.286;2022-07-18T06:21:14;20.40;57.10
5461;DHT22;2753;49.196;8.286;2022-07-18T06:23:40;20.50;57.30
5461;DHT22;2753;49.196;8.286;2022-07-18T06:26:06;20.50;57.20
5461;DHT22;2753;49.196;8.286;2022-07-18T06:28:32;20.60;57.20
5461;DHT22;2753;49.196;8.286;2022-07-18T06:30:58;20.60;56.80
5461;DHT22;2753;49.196;8.286;2022-07-18T06:33:24;20.70;56.90
5461;DHT22;2753;49.196;8.286;2022-07-18T06:35:50;20.70;57.10
5461;DHT22;2753;49.196;8.286;2022-07-18T06:38:16;20.80;56.70
5461;DHT22;2753;49.196;8.286;2022-07-18T06:40:42;20.90;56.30
5461;DHT22;2753;49.196;8.286;2022-07-18T06:43:08;20.90;56.30
5461;DHT22;2753;49.196;8.286;2022-07-18T06:45:34;21.00;56.50
5461;DHT22;2753;49.196;8.286;2022-07-18T06:48:00;21.00;56.30
5461;DHT22;2753;49.196;8.286;2022-07-18T06:50:26;21.10;56.20
5461;DHT22;2753;49.196;8.286;2022-07-18T06:52:52;21.30;56.00
5461;DHT22;2753;49.196;8.286;2022-07-18T06:55:17;21.50;55.50
5461;DHT22;2753;49.196;8.286;2022-07-18T06:57:44;21.70;54.80
5461;DHT22;2753;49.196;8.286;2022-07-18T07:00:12;22.00;53.90
5461;DHT22;2753;49.196;8.286;2022-07-18T07:02:47;22.20;54.00
5461;DHT22;2753;49.196;8.286;2022-07-18T07:05:18;22.50;54.00
5461;DHT22;2753;49.196;8.286;2022-07-18T07:07:44;22.60;53.80
5461;DHT22;2753;49.196;8.286;2022-07-18T07:10:11;22.70;53.40
5461;DHT22;2753;49.196;8.286;2022-07-18T07:12:41;22.80;53.20
5461;DHT22;2753;49.196;8.286;2022-07-18T07:15:08;23.00;52.70
5461;DHT22;2753;49.196;8.286;2022-07-18T07:17:35;23.20;52.90
5461;DHT22;2753;49.196;8.286;2022-07-18T07:20:02;23.40;52.70
5461;DHT22;2753;49.196;8.286;2022-07-18T07:22:28;23.60;52.50
5461;DHT22;2753;49.196;8.286;2022-07-18T07:24:54;23.80;51.40
5461;DHT22;2753;49.196;8.286;2022-07-18T07:27:19;24.00;51.40
5461;DHT22;2753;49.196;8.286;2022-07-18T07:29:45;24.10;50.80
5461;DHT22;2753;49.196;8.286;2022-07-18T07:32:11;24.10;50.30
5461;DHT22;2753;49.196;8.286;2022-07-18T07:34:36;24.30;50.20
5461;DHT22;2753;49.196;8.286;2022-07-18T07:37:02;24.30;49.60
5461;DHT22;2753;49.196;8.286;2022-07-18T07:39:28;24.40;50.10
5461;DHT22;2753;49.196;8.286;2022-07-18T07:41:53;24.60;50.00
5461;DHT22;2753;49.196;8.286;2022-07-18T07:44:19;24.80;50.30
5461;DHT22;2753;49.196;8.286;2022-07-18T07:46:45;25.20;49.40
5461;DHT22;2753;49.196;8.286;2022-07-18T07:49:10;25.40;48.80
5461;DHT22;2753;49.196;8.286;2022-07-18T07:51:36;25.60;48.90
5461;DHT22;2753;49.196;8.286;2022-07-18T07:54:05;25.80;48.70
5461;DHT22;2753;49.196;8.286;2022-07-18T07:56:31;25.90;48.50
5461;DHT22;2753;49.196;8.286;2022-07-18T07:58:57;25.90;48.50
5461;DHT22;2753;49.196;8.286;2022-07-18T08:01:23;26.10;47.80
5461;DHT22;2753;49.196;8.286;2022-07-18T08:03:48;26.30;48.20
5461;DHT22;2753;49.196;8.286;2022-07-18T08:06:15;26.50;47.10
5461;DHT22;2753;49.196;8.286;2022-07-18T08:08:41;26.70;47.00
5461;DHT22;2753;49.196;8.286;2022-07-18T08:11:06;26.90;47.50
5461;DHT22;2753;49.196;8.286;2022-07-18T08:13:32;27.10;47.00
5461;DHT22;2753;49.196;8.286;2022-07-18T08:15:58;27.30;46.70
5461;DHT22;2753;49.196;8.286;2022-07-18T08:18:23;27.30;46.10
5461;DHT22;2753;49.196;8.286;2022-07-18T08:20:49;27.20;47.00
5461;DHT22;2753;49.196;8.286;2022-07-18T08:23:15;27.50;46.40
5461;DHT22;2753;49.196;8.286;2022-07-18T08:25:44;27.60;46.90
5461;DHT22;2753;49.196;8.286;2022-07-18T08:28:10;27.70;46.50
5461;DHT22;2753;49.196;8.286;2022-07-18T08:30:38;28.00;45.90
5461;DHT22;2753;49.196;8.286;2022-07-18T08:33:04;28.30;45.30
5461;DHT22;2753;49.196;8.286;2022-07-18T08:35:31;28.60;43.80
5461;DHT22;2753;49.196;8.286;2022-07-18T08:37:58;28.60;42.50
5461;DHT22;2753;49.196;8.286;2022-07-18T08:40:24;28.60;43.90
5461;DHT22;2753;49.196;8.286;2022-07-18T08:42:51;28.70;43.20
5461;DHT22;2753;49.196;8.286;2022-07-18T08:45:20;29.10;42.60
5461;DHT22;2753;49.196;8.286;2022-07-18T08:47:47;29.10;42.00
5461;DHT22;2753;49.196;8.286;2022-07-18T08:50:13;29.50;43.20
5461;DHT22;2753;49.196;8.286;2022-07-18T08:52:39;29.70;41.40
5461;DHT22;2753;49.196;8.286;2022-07-18T08:55:08;29.70;40.50
5461;DHT22;2753;49.196;8.286;2022-07-18T08:57:34;30.00;40.30
5461;DHT22;2753;49.196;8.286;2022-07-18T09:00:05;30.00;41.00
5461;DHT22;2753;49.196;8.286;2022-07-18T09:02:31;30.00;40.30
5461;DHT22;2753;49.196;8.286;2022-07-18T09:05:00;30.10;41.20
5461;DHT22;2753;49.196;8.286;2022-07-18T09:07:29;30.10;40.70
5461;DHT22;2753;49.196;8.286;2022-07-18T09:09:58;29.90;40.40
5461;DHT22;2753;49.196;8.286;2022-07-18T09:12:25;29.90;40.90
5461;DHT22;2753;49.196;8.286;2022-07-18T09:14:52;30.00;38.90
5461;DHT22;2753;49.196;8.286;2022-07-18T09:17:23;30.00;40.30
5461;DHT22;2753;49.196;8.286;2022-07-18T09:22:29;30.50;41.40
5461;DHT22;2753;49.196;8.286;2022-07-18T09:25:13;30.50;41.00
5461;DHT22;2753;49.196;8.286;2022-07-18T09:27:45;30.40;41.40
5461;DHT22;2753;49.196;8.286;2022-07-18T09:35:36;30.20;42.00
5461;DHT22;2753;49.196;8.286;2022-07-18T09:38:07;30.20;42.20
5461;DHT22;2753;49.196;8.286;2022-07-18T09:43:04;30.10;41.40
5461;DHT22;2753;49.196;8.286;2022-07-18T09:45:39;30.20;41.10
5461;DHT22;2753;49.196;8.286;2022-07-18T09:48:10;30.30;41.60
5461;DHT22;2753;49.196;8.286;2022-07-18T09:53:19;30.10;41.00
5461;DHT22;2753;49.196;8.286;2022-07-18T09:55:52;30.30;41.50
5461;DHT22;2753;49.196;8.286;2022-07-18T09:58:32;30.20;40.70
5461;DHT22;2753;49.196;8.286;2022-07-18T10:01:00;30.10;41.80
5461;DHT22;2753;49.196;8.286;2022-07-18T10:03:26;30.00;41.20
5461;DHT22;2753;49.196;8.286;2022-07-18T10:05:54;29.90;41.10
5461;DHT22;2753;49.196;8.286;2022-07-18T10:08:24;29.90;40.50
5461;DHT22;2753;49.196;8.286;2022-07-18T10:10:51;29.90;41.70
5461;DHT22;2753;49.196;8.286;2022-07-18T10:13:19;30.00;41.40
5461;DHT22;2753;49.196;8.286;2022-07-18T10:15:47;30.00;41.20
5461;DHT22;2753;49.196;8.286;2022-07-18T10:18:16;30.00;40.90
5461;DHT22;2753;49.196;8.286;2022-07-18T10:23:35;30.10;40.50
5461;DHT22;2753;49.196;8.286;2022-07-18T10:31:24;30.00;39.20
5461;DHT22;2753;49.196;8.286;2022-07-18T10:33:51;30.10;38.90
5461;DHT22;2753;49.196;8.286;2022-07-18T10:36:21;30.10;38.30
5461;DHT22;2753;49.196;8.286;2022-07-18T10:39:13;29.90;38.30
5461;DHT22;2753;49.196;8.286;2022-07-18T11:00:15;30.10;36.50
5461;DHT22;2753;49.196;8.286;2022-07-18T11:02:47;30.20;36.30
5461;DHT22;2753;49.196;8.286;2022-07-18T11:21:31;30.10;37.10
5461;DHT22;2753;49.196;8.286;2022-07-18T11:24:06;30.20;37.40
5461;DHT22;2753;49.196;8.286;2022-07-18T11:26:32;30.20;37.30
5461;DHT22;2753;49.196;8.286;2022-07-18T11:31:28;30.30;37.60
5461;DHT22;2753;49.196;8.286;2022-07-18T11:33:54;30.30;37.20
5461;DHT22;2753;49.196;8.286;2022-07-18T11:36:23;30.20;36.20
5461;DHT22;2753;49.196;8.286;2022-07-18T11:38:54;30.20;36.20
5461;DHT22;2753;49.196;8.286;2022-07-18T11:41:22;30.30;36.70
5461;DHT22;2753;49.196;8.286;2022-07-18T11:43:49;30.30;37.30
5461;DHT22;2753;49.196;8.286;2022-07-18T11:46:17;30.30;37.00
5461;DHT22;2753;49.196;8.286;2022-07-18T11:48:45;30.40;36.80
5461;DHT22;2753;49.196;8.286;2022-07-18T11:51:16;30.40;36.70
5461;DHT22;2753;49.196;8.286;2022-07-18T11:53:43;30.40;37.60
5461;DHT22;2753;49.196;8.286;2022-07-18T11:56:09;30.40;37.50
5461;DHT22;2753;49.196;8.286;2022-07-18T11:58:39;30.40;37.30
5461;DHT22;2753;49.196;8.286;2022-07-18T12:01:05;30.50;38.00
5461;DHT22;2753;49.196;8.286;2022-07-18T12:03:35;30.50;36.30
5461;DHT22;2753;49.196;8.286;2022-07-18T12:06:19;30.40;36.80
5461;DHT22;2753;49.196;8.286;2022-07-18T12:08:55;30.50;36.70
5461;DHT22;2753;49.196;8.286;2022-07-18T12:11:36;30.60;36.90
5461;DHT22;2753;49.196;8.286;2022-07-18T12:14:15;30.60;36.80
5461;DHT22;2753;49.196;8.286;2022-07-18T12:16:49;30.70;36.00
5461;DHT22;2753;49.196;8.286;2022-07-18T12:19:22;30.70;36.60
5461;DHT22;2753;49.196;8.286;2022-07-18T12:24:33;30.80;35.00
5461;DHT22;2753;49.196;8.286;2022-07-18T12:30:08;30.80;35.90
5461;DHT22;2753;49.196;8.286;2022-07-18T12:32:54;30.80;35.30
5461;DHT22;2753;49.196;8.286;2022-07-18T12:35:23;30.70;34.50
5461;DHT22;2753;49.196;8.286;2022-07-18T12:38:07;30.70;34.50
5461;DHT22;2753;49.196;8.286;2022-07-18T12:43:14;30.80;34.00
5461;DHT22;2753;49.196;8.286;2022-07-18T12:45:41;30.90;34.70
5461;DHT22;2753;49.196;8.286;2022-07-18T12:48:11;30.80;35.20
5461;DHT22;2753;49.196;8.286;2022-07-18T12:50:38;30.80;36.00
5461;DHT22;2753;49.196;8.286;2022-07-18T12:53:04;30.80;34.60
5461;DHT22;2753;49.196;8.286;2022-07-18T12:55:30;30.80;34.80
5461;DHT22;2753;49.196;8.286;2022-07-18T12:57:55;30.90;35.10
5461;DHT22;2753;49.196;8.286;2022-07-18T13:00:21;31.00;35.20
5461;DHT22;2753;49.196;8.286;2022-07-18T13:02:47;31.00;35.00
5461;DHT22;2753;49.196;8.286;2022-07-18T13:05:13;31.00;34.30
5461;DHT22;2753;49.196;8.286;2022-07-18T13:07:39;31.10;34.10
5461;DHT22;2753;49.196;8.286;2022-07-18T13:10:05;31.10;33.90
5461;DHT22;2753;49.196;8.286;2022-07-18T13:12:32;31.00;33.50
5461;DHT22;2753;49.196;8.286;2022-07-18T13:14:57;31.00;34.70
5461;DHT22;2753;49.196;8.286;2022-07-18T13:17:23;31.00;34.60
5461;DHT22;2753;49.196;8.286;2022-07-18T13:19:49;31.10;34.90
5461;DHT22;2753;49.196;8.286;2022-07-18T13:22:15;31.10;34.70
5461;DHT22;2753;49.196;8.286;2022-07-18T13:24:41;31.10;33.80
5461;DHT22;2753;49.196;8.286;2022-07-18T13:27:08;31.10;34.00
5461;DHT22;2753;49.196;8.286;2022-07-18T13:29:33;31.10;33.30
5461;DHT22;2753;49.196;8.286;2022-07-18T13:31:59;31.10;33.80
5461;DHT22;2753;49.196;8.286;2022-07-18T13:34:25;31.20;33.90
5461;DHT22;2753;49.196;8.286;2022-07-18T13:36:52;31.20;34.30
5461;DHT22;2753;49.196;8.286;2022-07-18T13:39:19;31.20;35.10
5461;DHT22;2753;49.196;8.286;2022-07-18T13:41:45;31.30;34.80
5461;DHT22;2753;49.196;8.286;2022-07-18T13:44:11;31.10;35.30
5461;DHT22;2753;49.196;8.286;2022-07-18T13:46:37;31.20;34.60
5461;DHT22;2753;49.196;8.286;2022-07-18T13:49:06;31.30;35.20
5461;DHT22;2753;49.196;8.286;2022-07-18T13:51:31;31.20;34.60
5461;DHT22;2753;49.196;8.286;2022-07-18T13:53:57;31.30;36.00
5461;DHT22;2753;49.196;8.286;2022-07-18T13:56:22;31.40;34.50
5461;DHT22;2753;49.196;8.286;2022-07-18T13:58:48;31.40;35.00
5461;DHT22;2753;49.196;8.286;2022-07-18T14:01:14;31.40;35.10
5461;DHT22;2753;49.196;8.286;2022-07-18T14:03:39;31.40;35.50
5461;DHT22;2753;49.196;8.286;2022-07-18T14:06:05;31.60;34.10
5461;DHT22;2753;49.196;8.286;2022-07-18T14:08:31;31.60;35.00
5461;DHT22;2753;49.196;8.286;2022-07-18T14:10:56;31.60;34.90
5461;DHT22;2753;49.196;8.286;2022-07-18T14:13:22;31.50;34.50
5461;DHT22;2753;49.196;8.286;2022-07-18T14:15:48;31.50;34.90
5461;DHT22;2753;49.196;8.286;2022-07-18T14:18:13;31.50;35.70
5461;DHT22;2753;49.196;8.286;2022-07-18T14:20:39;31.50;36.10
5461;DHT22;2753;49.196;8.286;2022-07-18T14:23:06;31.50;35.50
5461;DHT22;2753;49.196;8.286;2022-07-18T14:25:31;31.50;36.40
5461;DHT22;2753;49.196;8.286;2022-07-18T14:27:57;31.50;36.30
5461;DHT22;2753;49.196;8.286;2022-07-18T14:30:23;31.60;35.50
5461;DHT22;2753;49.196;8.286;2022-07-18T14:32:50;31.70;35.60
5461;DHT22;2753;49.196;8.286;2022-07-18T14:35:16;31.70;35.50
5461;DHT22;2753;49.196;8.286;2022-07-18T14:37:41;31.70;34.60
5461;DHT22;2753;49.196;8.286;2022-07-18T14:40:08;31.70;35.70
5461;DHT22;2753;49.196;8.286;2022-07-18T14:42:33;31.70;36.00
5461;DHT22;2753;49.196;8.286;2022-07-18T14:44:59;31.70;36.70
5461;DHT22;2753;49.196;8.286;2022-07-18T14:47:25;31.60;36.30
5461;DHT22;2753;49.196;8.286;2022-07-18T14:49:51;31.60;35.20
5461;DHT22;2753;49.196;8.286;2022-07-18T14:52:17;31.60;35.50
5461;DHT22;2753;49.196;8.286;2022-07-18T14:54:42;31.60;35.50
5461;DHT22;2753;49.196;8.286;2022-07-18T14:57:08;31.60;35.00
5461;DHT22;2753;49.196;8.286;2022-07-18T14:59:34;31.70;34.60
5461;DHT22;2753;49.196;8.286;2022-07-18T15:01:59;31.70;35.50
5461;DHT22;2753;49.196;8.286;2022-07-18T15:04:32;31.70;36.40
5461;DHT22;2753;49.196;8.286;2022-07-18T15:06:58;31.70;36.20
5461;DHT22;2753;49.196;8.286;2022-07-18T15:09:23;31.80;35.00
5461;DHT22;2753;49.196;8.286;2022-07-18T15:11:49;31.80;36.10
5461;DHT22;2753;49.196;8.286;2022-07-18T15:14:15;31.90;36.20
5461;DHT22;2753;49.196;8.286;2022-07-18T15:16:40;31.80;36.20
5461;DHT22;2753;49.196;8.286;2022-07-18T15:19:06;31.80;36.40
5461;DHT22;2753;49.196;8.286;2022-07-18T15:21:32;31.80;35.90
5461;DHT22;2753;49.196;8.286;2022-07-18T15:23:58;31.80;36.10
5461;DHT22;2753;49.196;8.286;2022-07-18T15:26:24;31.90;35.80
5461;DHT22;2753;49.196;8.286;2022-07-18T15:28:50;31.80;35.30
5461;DHT22;2753;49.196;8.286;2022-07-18T15:31:16;31.80;36.00
5461;DHT22;2753;49.196;8.286;2022-07-18T15:33:42;31.80;35.80
5461;DHT22;2753;49.196;8.286;2022-07-18T15:36:07;31.90;36.30
5461;DHT22;2753;49.196;8.286;2022-07-18T15:38:34;31.90;35.30
5461;DHT22;2753;49.196;8.286;2022-07-18T15:41:00;31.90;35.50
5461;DHT22;2753;49.196;8.286;2022-07-18T15:43:26;31.90;36.40
5461;DHT22;2753;49.196;8.286;2022-07-18T15:45:52;31.90;35.90
5461;DHT22;2753;49.196;8.286;2022-07-18T15:48:17;31.90;35.10
5461;DHT22;2753;49.196;8.286;2022-07-18T15:50:43;31.90;36.40
5461;DHT22;2753;49.196;8.286;2022-07-18T15:53:08;31.90;36.20
5461;DHT22;2753;49.196;8.286;2022-07-18T15:55:34;31.90;36.30
5461;DHT22;2753;49.196;8.286;2022-07-18T15:58:00;31.90;36.10
5461;DHT22;2753;49.196;8.286;2022-07-18T16:00:26;31.90;35.30
5461;DHT22;2753;49.196;8.286;2022-07-18T16:02:52;31.90;34.30
5461;DHT22;2753;49.196;8.286;2022-07-18T16:05:18;31.90;34.70
5461;DHT22;2753;49.196;8.286;2022-07-18T16:07:44;31.80;34.60
5461;DHT22;2753;49.196;8.286;2022-07-18T16:10:09;31.90;34.80
5461;DHT22;2753;49.196;8.286;2022-07-18T16:12:35;31.80;35.00
5461;DHT22;2753;49.196;8.286;2022-07-18T16:15:01;31.80;34.50
5461;DHT22;2753;49.196;8.286;2022-07-18T16:17:26;31.80;35.40
5461;DHT22;2753;49.196;8.286;2022-07-18T16:19:52;31.80;35.10
5461;DHT22;2753;49.196;8.286;2022-07-18T16:22:18;31.80;35.30
5461;DHT22;2753;49.196;8.286;2022-07-18T16:24:43;31.80;34.60
5461;DHT22;2753;49.196;8.286;2022-07-18T16:27:10;31.70;35.60
5461;DHT22;2753;49.196;8.286;2022-07-18T16:29:36;31.70;35.00
5461;DHT22;2753;49.196;8.286;2022-07-18T16:32:02;31.70;36.30
5461;DHT22;2753;49.196;8.286;2022-07-18T16:34:28;31.70;35.50
5461;DHT22;2753;49.196;8.286;2022-07-18T16:36:54;31.70;36.00
5461;DHT22;2753;49.196;8.286;2022-07-18T16:39:22;31.70;35.40
5461;DHT22;2753;49.196;8.286;2022-07-18T16:41:48;31.70;34.50
5461;DHT22;2753;49.196;8.286;2022-07-18T16:44:14;31.70;34.50
5461;DHT22;2753;49.196;8.286;2022-07-18T16:46:40;31.70;35.10
5461;DHT22;2753;49.196;8.286;2022-07-18T16:49:05;31.70;34.80
5461;DHT22;2753;49.196;8.286;2022-07-18T16:51:32;31.70;35.10
5461;DHT22;2753;49.196;8.286;2022-07-18T16:53:58;31.70;35.00
5461;DHT22;2753;49.196;8.286;2022-07-18T16:56:23;31.70;35.20
5461;DHT22;2753;49.196;8.286;2022-07-18T16:58:49;31.70;34.90
5461;DHT22;2753;49.196;8.286;2022-07-18T17:01:15;31.70;35.40
5461;DHT22;2753;49.196;8.286;2022-07-18T17:03:41;31.60;35.30
5461;DHT22;2753;49.196;8.286;2022-07-18T17:06:07;31.60;35.00